createdAt,value
2023-05-09T00:01:19.399Z,98.90
2023-05-09T00:06:21.661Z,99.10
2023-05-09T00:11:23.562Z,99.90
2023-05-09T00:16:25.307Z,99.50
2023-05-09T00:21:28.156Z,99.50
2023-05-09T00:26:29.886Z,99.90
2023-05-09T00:31:31.625Z,99.90
2023-05-09T00:36:33.361Z,99.90
2023-05-09T00:41:35.088Z,99.90
2023-05-09T00:46:36.998Z,99.90
2023-05-09T00:51:41.046Z,99.90
2023-05-09T00:56:42.923Z,99.90
2023-05-09T01:01:46.233Z,99.90
2023-05-09T01:06:47.986Z,99.90
2023-05-09T01:12:12.665Z,99.90
2023-05-09T01:17:21.947Z,99.90
2023-05-09T01:22:32.009Z,99.90
2023-05-09T01:27:46.226Z,99.90
2023-05-09T01:32:51.260Z,99.90
2023-05-09T01:37:54.579Z,99.90
2023-05-09T01:43:01.229Z,99.90
2023-05-09T01:48:04.341Z,99.90
2023-05-09T01:53:07.166Z,99.90
2023-05-09T01:58:10.638Z,99.90
2023-05-09T02:03:13.191Z,99.90
2023-05-09T02:08:16.933Z,99.90
2023-05-09T02:13:18.900Z,99.90
2023-05-09T02:18:21.799Z,99.90
2023-05-09T02:23:23.595Z,99.90
2023-05-09T02:28:27.258Z,99.90
2023-05-09T02:33:30.814Z,99.90
2023-05-09T02:38:32.723Z,99.90
2023-05-09T02:43:34.423Z,99.90
2023-05-09T02:48:36.496Z,99.90
2023-05-09T02:53:38.212Z,99.90
2023-05-09T02:58:39.916Z,99.90
2023-05-09T03:03:41.805Z,99.90
2023-05-09T03:08:43.629Z,99.90
2023-05-09T03:13:46.490Z,99.90
2023-05-09T03:18:48.382Z,99.90
2023-05-09T03:23:50.236Z,99.90
2023-05-09T03:28:52.101Z,99.90
2023-05-09T03:33:54.233Z,99.90
2023-05-09T03:38:56.597Z,99.90
2023-05-09T03:43:58.743Z,99.90
2023-05-09T03:49:00.700Z,99.90
2023-05-09T03:54:03.122Z,99.90
2023-05-09T03:59:05.015Z,99.90
2023-05-09T04:04:08.348Z,99.90
2023-05-09T04:09:11.531Z,99.90
2023-05-09T04:14:16.484Z,99.90
2023-05-09T04:19:18.380Z,99.90
2023-05-09T04:24:20.207Z,99.90
2023-05-09T04:29:23.473Z,99.90
2023-05-09T04:34:29.681Z,99.90
2023-05-09T04:39:34.975Z,99.90
2023-05-09T04:44:45.924Z,96.80
2023-05-09T04:49:47.724Z,95.20
2023-05-09T04:54:49.528Z,94.70
2023-05-09T04:59:53.913Z,94.00
2023-05-09T05:05:06.278Z,94.10
2023-05-09T05:10:14.697Z,91.30
2023-05-09T05:15:20.250Z,90.30
2023-05-09T05:20:23.402Z,90.90
2023-05-09T05:25:26.305Z,89.90
2023-05-09T05:30:30.384Z,90.20
2023-05-09T05:35:33.392Z,85.90
2023-05-09T05:40:35.456Z,87.10
2023-05-09T05:45:39.720Z,85.80
2023-05-09T05:50:44.576Z,87.80
2023-05-09T05:55:49.216Z,87.10
2023-05-09T06:00:55.042Z,86.50
2023-05-09T06:05:56.947Z,86.50
2023-05-09T06:11:00.333Z,81.30
2023-05-09T06:16:15.018Z,83.40
2023-05-09T06:21:20.285Z,82.00
2023-05-09T06:26:22.246Z,83.60
2023-05-09T06:31:25.651Z,81.50
2023-05-09T06:36:27.630Z,87.30
2023-05-09T06:41:29.345Z,81.90
2023-05-09T06:46:31.087Z,79.80
2023-05-09T06:51:32.841Z,75.90
2023-05-09T06:56:34.586Z,77.40
2023-05-09T07:01:36.358Z,79.40
2023-05-09T07:06:38.085Z,86.80
2023-05-09T07:11:39.828Z,89.20
2023-05-09T07:16:41.594Z,91.20
2023-05-09T07:21:43.298Z,90.30
2023-05-09T07:26:45.175Z,89.30
2023-05-09T07:31:47.002Z,86.50
2023-05-09T07:36:49.542Z,82.50
2023-05-09T07:41:51.454Z,82.40
2023-05-09T07:46:55.432Z,76.30
2023-05-09T07:51:57.191Z,74.60
2023-05-09T07:56:58.919Z,80.10
2023-05-09T08:02:00.823Z,83.00
2023-05-09T08:07:04.077Z,84.50
2023-05-09T08:12:06.203Z,83.10
2023-05-09T08:17:08.123Z,83.50
2023-05-09T08:22:16.022Z,84.00
2023-05-09T08:27:17.827Z,83.00
2023-05-09T08:32:20.114Z,84.60
2023-05-09T08:37:21.914Z,82.50
2023-05-09T08:42:26.656Z,82.30
2023-05-09T08:47:29.589Z,80.80
2023-05-09T08:52:33.558Z,80.70
2023-05-09T08:57:35.579Z,79.00
2023-05-09T09:02:40.382Z,73.70
2023-05-09T09:07:42.868Z,71.10
2023-05-09T09:12:44.874Z,68.80
2023-05-09T09:17:50.823Z,71.60
2023-05-09T09:22:58.827Z,69.20
2023-05-09T09:28:00.545Z,68.00
2023-05-09T09:33:02.593Z,68.30
2023-05-09T09:38:06.530Z,66.60
2023-05-09T09:43:09.532Z,67.40
2023-05-09T09:48:11.605Z,63.90
2023-05-09T09:53:13.436Z,65.00
2023-05-09T09:58:21.759Z,65.30
2023-05-09T10:03:23.597Z,62.80
2023-05-09T10:08:26.502Z,65.00
2023-05-09T10:13:28.840Z,65.10
2023-05-09T10:18:31.504Z,61.20
2023-05-09T10:23:38.000Z,65.60
2023-05-09T10:28:41.945Z,62.70
2023-05-09T10:33:48.265Z,61.10
2023-05-09T10:38:53.742Z,61.80
2023-05-09T10:43:59.655Z,60.00
2023-05-09T10:49:02.173Z,59.00
2023-05-09T10:54:14.367Z,59.90
2023-05-09T10:59:37.971Z,59.40
2023-05-09T11:04:40.634Z,59.20
2023-05-09T11:09:42.378Z,58.20
2023-05-09T11:14:48.775Z,58.30
2023-05-09T11:19:50.483Z,61.70
2023-05-09T11:24:59.743Z,59.90
2023-05-09T11:30:06.073Z,56.70
2023-05-09T11:35:16.096Z,58.00
2023-05-09T11:40:20.194Z,58.20
2023-05-09T11:45:27.409Z,55.30
2023-05-09T11:50:29.389Z,55.90
2023-05-09T11:55:32.651Z,58.30
2023-05-09T12:00:34.373Z,56.70
2023-05-09T12:05:39.471Z,55.70
2023-05-09T12:10:41.514Z,55.00
2023-05-09T12:15:43.415Z,57.70
2023-05-09T12:20:51.038Z,56.80
2023-05-09T12:25:56.763Z,57.40
2023-05-09T12:30:59.027Z,58.30
2023-05-09T12:36:10.353Z,55.20
2023-05-09T12:41:30.846Z,57.20
2023-05-09T12:46:35.685Z,54.80
2023-05-09T12:51:47.622Z,55.80
2023-05-09T12:56:52.151Z,55.90
2023-05-09T13:01:59.613Z,56.90
2023-05-09T13:07:01.499Z,56.20
2023-05-09T13:12:04.341Z,55.80
2023-05-09T13:17:06.893Z,54.00
2023-05-09T13:22:10.453Z,56.20
2023-05-09T13:27:14.152Z,55.70
2023-05-09T13:32:16.153Z,53.70
2023-05-09T13:37:18.319Z,55.70
2023-05-09T13:42:20.509Z,55.20
2023-05-09T13:47:22.360Z,54.40
2023-05-09T13:52:24.135Z,56.70
2023-05-09T13:57:25.848Z,56.40
2023-05-09T14:02:27.693Z,56.60
2023-05-09T14:07:29.711Z,53.80
2023-05-09T14:12:31.460Z,57.50
2023-05-09T14:17:33.335Z,53.10
2023-05-09T14:22:35.124Z,54.30
2023-05-09T14:27:37.202Z,54.70
2023-05-09T14:32:39.052Z,54.70
2023-05-09T14:37:41.416Z,55.70
2023-05-09T14:42:44.204Z,57.00
2023-05-09T14:47:46.564Z,55.70
2023-05-09T14:52:50.401Z,56.70
2023-05-09T14:57:52.238Z,55.50
2023-05-09T15:02:54.238Z,55.60
2023-05-09T15:07:56.108Z,54.80
2023-05-09T15:12:58.290Z,54.20
2023-05-09T15:18:01.026Z,51.80
2023-05-09T15:23:03.571Z,52.90
2023-05-09T15:28:05.504Z,52.00
2023-05-09T15:33:07.961Z,52.30
2023-05-09T15:38:12.078Z,50.80
2023-05-09T15:43:13.876Z,51.00
2023-05-09T15:48:16.624Z,49.80
2023-05-09T15:53:18.316Z,50.10
2023-05-09T15:58:20.054Z,51.50
2023-05-09T16:03:23.130Z,51.60
2023-05-09T16:08:25.061Z,51.80
2023-05-09T16:13:26.947Z,52.80
2023-05-09T16:18:28.989Z,53.90
2023-05-09T16:23:30.717Z,55.50
2023-05-09T16:28:32.471Z,56.80
2023-05-09T16:33:34.873Z,56.00
2023-05-09T16:38:36.832Z,56.10
2023-05-09T16:43:40.147Z,58.90
2023-05-09T16:48:41.882Z,57.90
2023-05-09T16:53:43.661Z,57.50
2023-05-09T16:58:45.426Z,57.80
2023-05-09T17:03:48.085Z,58.80
2023-05-09T17:08:49.866Z,58.90
2023-05-09T17:13:51.551Z,59.40
2023-05-09T17:18:53.264Z,59.90
2023-05-09T17:23:55.396Z,61.00
2023-05-09T17:28:57.207Z,60.60
2023-05-09T17:33:58.919Z,59.50
2023-05-09T17:39:00.911Z,59.90
2023-05-09T17:44:02.734Z,62.20
2023-05-09T17:49:07.669Z,64.10
2023-05-09T17:54:10.503Z,65.00
2023-05-09T17:59:12.268Z,66.70
2023-05-09T18:04:14.312Z,66.60
2023-05-09T18:09:16.090Z,67.00
2023-05-09T18:14:18.104Z,67.20
2023-05-09T18:19:19.879Z,67.80
2023-05-09T18:24:21.888Z,67.90
2023-05-09T18:29:23.636Z,68.10
2023-05-09T18:34:25.590Z,68.10
2023-05-09T18:39:28.407Z,68.30
2023-05-09T18:44:30.245Z,68.30
2023-05-09T18:49:32.605Z,70.50
2023-05-09T18:54:36.410Z,72.40
2023-05-09T18:59:38.129Z,72.90
2023-05-09T19:04:40.090Z,73.70
2023-05-09T19:09:42.294Z,73.40
2023-05-09T19:14:44.052Z,73.00
2023-05-09T19:19:45.868Z,73.60
2023-05-09T19:24:47.620Z,73.50
2023-05-09T19:29:49.943Z,73.40
2023-05-09T19:34:51.984Z,72.90
2023-05-09T19:39:53.721Z,71.20
2023-05-09T19:44:55.427Z,71.80
2023-05-09T19:49:57.171Z,70.70
2023-05-09T19:54:58.925Z,70.40
2023-05-09T20:00:00.691Z,69.80
2023-05-09T20:05:02.451Z,70.40
2023-05-09T20:10:04.635Z,70.70
2023-05-09T20:15:08.002Z,70.50
2023-05-09T20:20:10.457Z,71.90
2023-05-09T20:25:13.595Z,71.70
2023-05-09T20:30:17.334Z,71.80
2023-05-09T20:35:19.423Z,71.30
2023-05-09T20:40:21.231Z,71.50
2023-05-09T20:45:23.195Z,72.50
2023-05-09T20:50:25.095Z,72.30
2023-05-09T20:55:27.104Z,71.30
2023-05-09T21:00:28.897Z,70.30
2023-05-09T21:05:30.710Z,70.60
2023-05-09T21:10:32.469Z,74.90
2023-05-09T21:15:34.190Z,79.70
2023-05-09T21:20:35.941Z,86.80
2023-05-09T21:25:37.799Z,90.90
2023-05-09T21:30:39.541Z,93.00
2023-05-09T21:35:42.495Z,94.70
2023-05-09T21:40:44.222Z,97.70
2023-05-09T21:45:46.285Z,99.90
2023-05-09T21:50:48.023Z,99.90
2023-05-09T21:55:50.891Z,99.90
2023-05-09T22:00:52.616Z,99.90
2023-05-09T22:05:54.396Z,99.90
2023-05-09T22:10:56.137Z,99.90
2023-05-09T22:15:57.894Z,99.90
2023-05-09T22:20:59.718Z,99.90
2023-05-09T22:26:01.450Z,99.90
2023-05-09T22:31:06.704Z,99.90
2023-05-09T22:36:08.802Z,99.90
2023-05-09T22:41:10.616Z,99.90
2023-05-09T22:46:12.456Z,99.90
2023-05-09T22:51:15.055Z,99.90
2023-05-09T22:56:16.920Z,99.90
2023-05-09T23:01:19.379Z,99.90
2023-05-09T23:06:21.238Z,99.90
2023-05-09T23:11:24.364Z,99.90
2023-05-09T23:16:26.069Z,99.90
2023-05-09T23:21:27.783Z,99.90
2023-05-09T23:26:29.522Z,99.90
2023-05-09T23:31:31.323Z,99.90
2023-05-09T23:36:33.155Z,99.90
2023-05-09T23:41:35.492Z,99.90
2023-05-09T23:46:37.254Z,99.90
2023-05-09T23:51:39.152Z,99.90
2023-05-09T23:56:40.897Z,99.90
